createdAt,value
2017-11-28T00:01:39.308Z,99544.66
2017-11-28T00:04:06.712Z,99531.92
2017-11-28T00:06:34.164Z,99530.81
2017-11-28T00:09:01.577Z,99529.38
2017-11-28T00:11:28.972Z,99536.72
2017-11-28T00:13:56.371Z,99531.42
2017-11-28T00:16:23.792Z,99529.98
2017-11-28T00:18:51.188Z,99536.91
2017-11-28T00:21:18.617Z,99533.45
2017-11-28T00:23:46.038Z,99538.23
2017-11-28T00:26:13.444Z,99536.11
2017-11-28T00:28:40.864Z,99529.27
2017-11-28T00:31:08.276Z,99525.98
2017-11-28T00:33:35.686Z,99521.99
2017-11-28T00:36:03.091Z,99529.44
2017-11-28T00:38:30.484Z,99531.19
2017-11-28T00:40:57.897Z,99527.94
2017-11-28T00:43:25.288Z,99534.41
2017-11-28T00:45:52.709Z,99530.14
2017-11-28T00:48:20.123Z,99521.98
2017-11-28T00:50:47.521Z,99518.97
2017-11-28T00:53:14.979Z,99515.59
2017-11-28T00:55:42.364Z,99509.91
2017-11-28T00:58:09.842Z,99508.59
2017-11-28T01:00:37.280Z,99505.74
2017-11-28T01:03:04.670Z,99507.98
2017-11-28T01:05:32.068Z,99507.16
2017-11-28T01:07:59.500Z,99511.02
2017-11-28T01:10:26.972Z,99508.00
2017-11-28T01:12:54.358Z,99505.73
2017-11-28T01:15:21.803Z,99499.53
2017-11-28T01:17:49.200Z,99498.02
2017-11-28T01:20:16.588Z,99500.36
2017-11-28T01:22:43.995Z,99506.26
2017-11-28T01:25:11.392Z,99499.42
2017-11-28T01:27:38.800Z,99495.67
2017-11-28T01:30:06.212Z,99494.95
2017-11-28T01:32:33.632Z,99495.37
2017-11-28T01:35:01.033Z,99501.57
2017-11-28T01:37:28.417Z,99496.69
2017-11-28T01:39:55.874Z,99494.23
2017-11-28T01:42:23.292Z,99496.69
2017-11-28T01:44:50.700Z,99496.27
2017-11-28T01:47:18.089Z,99495.06
2017-11-28T01:49:45.488Z,99491.81
2017-11-28T01:52:12.884Z,99494.34
2017-11-28T01:54:40.276Z,99488.14
2017-11-28T01:57:07.688Z,99484.77
2017-11-28T01:59:35.072Z,99488.63
2017-11-28T02:02:02.499Z,99477.13
2017-11-28T02:04:29.869Z,99478.88
2017-11-28T02:06:57.278Z,99473.28
2017-11-28T02:09:24.652Z,99470.10
2017-11-28T02:11:52.039Z,99472.56
2017-11-28T02:14:19.432Z,99474.80
2017-11-28T02:16:46.818Z,99462.69
2017-11-28T02:19:14.219Z,99463.30
2017-11-28T02:21:41.616Z,99463.90
2017-11-28T02:24:09.015Z,99454.41
2017-11-28T02:26:36.407Z,99451.38
2017-11-28T02:29:03.795Z,99452.29
2017-11-28T02:31:31.192Z,99451.27
2017-11-28T02:33:58.576Z,99442.00
2017-11-28T02:36:25.968Z,99442.00
2017-11-28T02:38:53.356Z,99434.85
2017-11-28T02:41:20.756Z,99431.82
2017-11-28T02:43:48.929Z,99434.47
2017-11-28T02:46:17.221Z,99433.14
2017-11-28T02:48:55.976Z,99423.46
2017-11-28T02:51:23.360Z,99421.30
2017-11-28T02:53:50.766Z,99423.95
2017-11-28T02:56:18.152Z,99413.28
2017-11-28T02:58:50.806Z,99410.62
2017-11-28T03:01:19.007Z,99410.71
2017-11-28T03:03:46.409Z,99417.25
2017-11-28T03:06:13.792Z,99410.83
2017-11-28T03:08:41.188Z,99406.97
2017-11-28T03:11:08.580Z,99412.64
2017-11-28T03:13:36.673Z,99410.64
2017-11-28T03:19:03.707Z,99420.20
2017-11-28T03:21:31.108Z,99411.66
2017-11-28T03:26:55.360Z,99410.94
2017-11-28T03:29:27.240Z,99412.67
2017-11-28T03:31:54.631Z,99412.75
2017-11-28T03:34:22.028Z,99408.59
2017-11-28T03:36:49.432Z,99406.74
2017-11-28T03:39:16.815Z,99411.95
2017-11-28T03:41:44.208Z,99405.33
2017-11-28T03:47:10.983Z,99402.34
2017-11-28T03:49:38.380Z,99396.25
2017-11-28T03:52:05.772Z,99403.47
2017-11-28T03:54:33.163Z,99393.17
2017-11-28T03:57:00.566Z,99392.07
2017-11-28T03:59:27.961Z,99391.55
2017-11-28T04:01:55.374Z,99392.99
2017-11-28T04:04:22.760Z,99391.36
2017-11-28T04:06:50.163Z,99399.90
2017-11-28T04:09:17.560Z,99389.39
2017-11-28T04:11:44.948Z,99390.71
2017-11-28T04:14:12.345Z,99394.19
2017-11-28T04:16:39.735Z,99393.05
2017-11-28T04:19:07.128Z,99401.12
2017-11-28T04:21:34.533Z,99395.52
2017-11-28T04:24:01.917Z,99393.60
2017-11-28T04:26:29.317Z,99395.64
2017-11-28T04:28:56.734Z,99401.73
2017-11-28T04:31:24.109Z,99407.63
2017-11-28T04:33:51.500Z,99392.98
2017-11-28T04:36:18.889Z,99399.00
2017-11-28T04:38:46.280Z,99391.05
2017-11-28T04:41:13.668Z,99391.74
2017-11-28T04:43:41.056Z,99388.41
2017-11-28T04:46:08.452Z,99386.06
2017-11-28T04:48:35.835Z,99384.82
2017-11-28T04:51:03.248Z,99388.79
2017-11-28T04:53:30.649Z,99386.37
2017-11-28T04:55:58.028Z,99390.75
2017-11-28T04:58:25.432Z,99386.55
2017-11-28T05:00:53.481Z,99394.73
2017-11-28T05:03:20.911Z,99389.51
2017-11-28T05:05:48.300Z,99394.62
2017-11-28T05:08:15.719Z,99390.75
2017-11-28T05:10:43.144Z,99395.52
2017-11-28T05:13:10.540Z,99398.78
2017-11-28T05:15:37.968Z,99400.31
2017-11-28T05:18:05.353Z,99397.14
2017-11-28T05:20:32.765Z,99399.59
2017-11-28T05:23:00.150Z,99396.41
2017-11-28T05:25:27.550Z,99395.20
2017-11-28T05:27:54.970Z,99389.61
2017-11-28T05:30:22.367Z,99400.09
2017-11-28T05:32:49.769Z,99398.34
2017-11-28T05:35:17.159Z,99402.73
2017-11-28T05:37:44.571Z,99393.69
2017-11-28T05:40:11.960Z,99398.44
2017-11-28T05:42:39.345Z,99400.49
2017-11-28T05:45:06.730Z,99406.09
2017-11-28T05:47:34.155Z,99413.44
2017-11-28T05:50:02.228Z,99413.84
2017-11-28T05:52:29.656Z,99413.21
2017-11-28T05:54:57.044Z,99416.58
2017-11-28T05:57:24.444Z,99421.16
2017-11-28T05:59:52.178Z,99420.98
2017-11-28T06:02:19.653Z,99419.97
2017-11-28T06:04:47.051Z,99425.08
2017-11-28T06:07:14.470Z,99418.88
2017-11-28T06:09:41.847Z,99428.64
2017-11-28T06:12:09.240Z,99424.89
2017-11-28T06:14:36.635Z,99426.30
2017-11-28T06:17:04.061Z,99431.22
2017-11-28T06:19:31.452Z,99432.44
2017-11-28T06:21:58.850Z,99429.78
2017-11-28T06:24:26.268Z,99432.44
2017-11-28T06:26:53.662Z,99434.17
2017-11-28T06:29:21.080Z,99442.30
2017-11-28T06:31:48.476Z,99440.56
2017-11-28T06:34:15.865Z,99448.84
2017-11-28T06:36:43.256Z,99445.17
2017-11-28T06:39:10.643Z,99445.77
2017-11-28T06:41:38.053Z,99450.77
2017-11-28T06:44:05.449Z,99450.87
2017-11-28T06:46:32.839Z,99452.37
2017-11-28T06:49:00.239Z,99446.77
2017-11-28T06:51:27.656Z,99451.55
2017-11-28T06:53:55.045Z,99456.30
2017-11-28T06:56:22.437Z,99460.79
2017-11-28T06:58:49.819Z,99463.31
2017-11-28T07:01:17.212Z,99473.47
2017-11-28T07:03:44.638Z,99472.15
2017-11-28T07:06:12.036Z,99470.95
2017-11-28T07:08:39.433Z,99470.25
2017-11-28T07:11:06.851Z,99478.91
2017-11-28T07:13:34.312Z,99477.59
2017-11-28T07:16:01.671Z,99480.23
2017-11-28T07:18:29.115Z,99477.17
2017-11-28T07:20:56.562Z,99482.44
2017-11-28T07:23:23.945Z,99482.02
2017-11-28T07:25:51.353Z,99491.52
2017-11-28T07:28:18.743Z,99487.85
2017-11-28T07:30:46.165Z,99488.27
2017-11-28T07:33:13.564Z,99490.90
2017-11-28T07:35:40.947Z,99486.53
2017-11-28T07:38:08.365Z,99489.28
2017-11-28T07:40:35.750Z,99488.56
2017-11-28T07:43:03.212Z,99494.03
2017-11-28T07:45:30.604Z,99487.64
2017-11-28T07:47:57.986Z,99486.48
2017-11-28T07:50:25.373Z,99482.33
2017-11-28T07:52:52.782Z,99487.78
2017-11-28T07:55:20.208Z,99492.65
2017-11-28T07:57:47.668Z,99495.25
2017-11-28T08:00:15.055Z,99495.33
2017-11-28T08:02:42.500Z,99494.41
2017-11-28T08:05:09.921Z,99491.56
2017-11-28T08:07:37.349Z,99496.42
2017-11-28T08:10:04.741Z,99500.08
2017-11-28T08:12:32.119Z,99496.60
2017-11-28T08:14:59.545Z,99503.05
2017-11-28T08:17:26.948Z,99505.81
2017-11-28T08:19:54.353Z,99501.84
2017-11-28T08:22:21.744Z,99501.86
2017-11-28T08:24:49.134Z,99498.09
2017-11-28T08:27:16.545Z,99510.00
2017-11-28T08:29:43.938Z,99504.22
2017-11-28T08:32:11.341Z,99501.38
2017-11-28T08:34:38.737Z,99499.06
2017-11-28T08:37:06.134Z,99495.92
2017-11-28T08:39:33.530Z,99503.34
2017-11-28T08:42:00.936Z,99493.70
2017-11-28T08:44:28.347Z,99501.48
2017-11-28T08:46:55.774Z,99500.38
2017-11-28T08:49:23.187Z,99504.67
2017-11-28T08:51:50.584Z,99504.59
2017-11-28T08:54:18.003Z,99507.66
2017-11-28T08:56:45.433Z,99510.81
2017-11-28T08:59:12.872Z,99512.14
2017-11-28T09:01:40.259Z,99502.77
2017-11-28T09:04:07.690Z,99505.73
2017-11-28T09:06:35.066Z,99509.02
2017-11-28T09:09:02.468Z,99504.41
2017-11-28T09:11:29.860Z,99506.06
2017-11-28T09:13:57.248Z,99507.89
2017-11-28T09:16:24.640Z,99506.24
2017-11-28T09:18:52.029Z,99507.16
2017-11-28T09:21:19.448Z,99504.94
2017-11-28T09:23:46.834Z,99508.09
2017-11-28T09:26:14.227Z,99504.34
2017-11-28T09:28:41.648Z,99514.29
2017-11-28T09:31:09.028Z,99509.21
2017-11-28T09:33:36.440Z,99514.29
2017-11-28T09:36:03.828Z,99514.29
2017-11-28T09:38:31.226Z,99523.78
2017-11-28T09:40:58.618Z,99515.73
2017-11-28T09:43:26.011Z,99522.34
2017-11-28T09:45:53.437Z,99512.05
2017-11-28T09:48:20.824Z,99513.98
2017-11-28T09:50:48.219Z,99517.05
2017-11-28T09:53:15.615Z,99517.77
2017-11-28T09:55:43.004Z,99521.44
2017-11-28T09:58:10.412Z,99516.32
2017-11-28T10:00:37.788Z,99513.97
2017-11-28T10:03:05.202Z,99505.71
2017-11-28T10:05:32.603Z,99511.08
2017-11-28T10:08:00.015Z,99506.30
2017-11-28T10:10:27.416Z,99510.69
2017-11-28T10:12:54.810Z,99511.78
2017-11-28T10:15:22.187Z,99499.75
2017-11-28T10:17:49.576Z,99503.13
2017-11-28T10:20:17.039Z,99500.41
2017-11-28T10:22:44.484Z,99508.77
2017-11-28T10:25:11.879Z,99505.16
2017-11-28T10:27:39.260Z,99508.64
2017-11-28T10:30:06.656Z,99500.27
2017-11-28T10:32:34.051Z,99499.25
2017-11-28T10:35:01.445Z,99500.47
2017-11-28T10:37:28.829Z,99498.41
2017-11-28T10:39:56.208Z,99495.98
2017-11-28T10:42:23.595Z,99498.52
2017-11-28T10:44:50.983Z,99496.59
2017-11-28T10:47:18.397Z,99497.32
2017-11-28T10:49:45.788Z,99493.52
2017-11-28T10:52:13.490Z,99494.72
2017-11-28T10:54:40.883Z,99495.34
2017-11-28T10:57:08.276Z,99484.77
2017-11-28T10:59:35.689Z,99476.80
2017-11-28T11:02:03.076Z,99477.41
2017-11-28T11:04:30.471Z,99468.41
2017-11-28T11:06:57.860Z,99465.64
2017-11-28T11:09:25.243Z,99476.83
2017-11-28T11:11:52.640Z,99470.94
2017-11-28T11:14:20.029Z,99469.91
2017-11-28T11:16:47.413Z,99477.44
2017-11-28T11:19:14.804Z,99471.44
2017-11-28T11:21:42.193Z,99465.94
2017-11-28T11:24:09.593Z,99460.73
2017-11-28T11:26:36.988Z,99462.08
2017-11-28T11:29:04.371Z,99454.89
2017-11-28T11:31:31.766Z,99456.45
2017-11-28T11:33:59.156Z,99458.50
2017-11-28T11:36:26.568Z,99458.16
2017-11-28T11:38:53.956Z,99454.48
2017-11-28T11:41:21.349Z,99456.14
2017-11-28T11:43:48.760Z,99453.08
2017-11-28T11:46:16.147Z,99452.20
2017-11-28T11:48:43.547Z,99444.42
2017-11-28T11:51:10.928Z,99450.38
2017-11-28T11:53:38.321Z,99449.92
2017-11-28T11:56:05.713Z,99445.84
2017-11-28T11:58:33.112Z,99440.31
2017-11-28T12:01:00.509Z,99441.38
2017-11-28T12:03:27.896Z,99442.03
2017-11-28T12:05:55.284Z,99438.92
2017-11-28T12:08:22.684Z,99431.86
2017-11-28T12:10:50.085Z,99430.43
2017-11-28T12:13:17.475Z,99431.72
2017-11-28T12:15:44.856Z,99425.22
2017-11-28T12:18:12.243Z,99419.48
2017-11-28T12:20:39.635Z,99418.31
2017-11-28T12:23:07.029Z,99421.95
2017-11-28T12:25:34.443Z,99425.39
2017-11-28T12:28:01.833Z,99417.70
2017-11-28T12:30:29.230Z,99422.77
2017-11-28T12:32:56.614Z,99420.45
2017-11-28T12:35:23.998Z,99420.90
2017-11-28T12:37:51.393Z,99416.48
2017-11-28T12:40:18.776Z,99421.22
2017-11-28T12:42:46.172Z,99413.85
2017-11-28T12:45:13.565Z,99416.73
2017-11-28T12:47:40.943Z,99412.38
2017-11-28T12:50:08.337Z,99407.11
2017-11-28T12:52:35.720Z,99406.39
2017-11-28T12:55:03.115Z,99411.50
2017-11-28T12:57:30.491Z,99403.46
2017-11-28T12:59:57.884Z,99398.04
2017-11-28T13:02:25.283Z,99397.11
2017-11-28T13:04:52.669Z,99395.56
2017-11-28T13:07:20.052Z,99394.36
2017-11-28T13:09:47.445Z,99397.91
2017-11-28T13:12:14.835Z,99396.84
2017-11-28T13:14:42.229Z,99403.77
2017-11-28T13:17:09.609Z,99397.82
2017-11-28T13:19:37.007Z,99391.48
2017-11-28T13:22:04.388Z,99386.34
2017-11-28T13:24:31.764Z,99385.63
2017-11-28T13:26:59.193Z,99389.23
2017-11-28T13:29:26.576Z,99391.48
2017-11-28T13:31:53.961Z,99386.19
2017-11-28T13:34:21.372Z,99382.63
2017-11-28T13:36:48.755Z,99388.75
2017-11-28T13:39:16.168Z,99388.12
2017-11-28T13:41:43.600Z,99386.34
2017-11-28T13:44:10.974Z,99393.23
2017-11-28T13:46:38.393Z,99380.30
2017-11-28T13:49:05.800Z,99389.61
2017-11-28T13:51:33.232Z,99381.86
2017-11-28T13:54:00.628Z,99388.12
2017-11-28T13:56:30.746Z,99383.63
2017-11-28T13:58:58.127Z,99382.44
2017-11-28T14:01:25.533Z,99383.79
2017-11-28T14:03:52.916Z,99387.25
2017-11-28T14:06:20.308Z,99386.70
2017-11-28T14:08:47.700Z,99382.61
2017-11-28T14:11:15.096Z,99380.02
2017-11-28T14:13:42.485Z,99378.42
2017-11-28T14:16:09.938Z,99375.95
2017-11-28T14:18:37.311Z,99380.01
2017-11-28T14:24:08.599Z,99375.45
2017-11-28T14:26:37.346Z,99379.58
2017-11-28T14:29:05.517Z,99377.63
2017-11-28T14:31:35.184Z,99376.98
2017-11-28T14:34:04.108Z,99370.30
2017-11-28T14:36:31.487Z,99373.69
2017-11-28T14:39:22.568Z,99379.56
2017-11-28T14:42:06.744Z,99373.81
2017-11-28T14:44:37.515Z,99382.72
2017-11-28T14:47:04.900Z,99382.15
2017-11-28T14:49:32.284Z,99379.84
2017-11-28T14:52:10.503Z,99378.72
2017-11-28T14:54:43.308Z,99384.88
2017-11-28T14:57:16.207Z,99375.48
2017-11-28T14:59:49.173Z,99372.36
2017-11-28T15:02:22.207Z,99374.34
2017-11-28T15:04:55.097Z,99367.72
2017-11-28T15:07:28.107Z,99368.75
2017-11-28T15:10:01.086Z,99367.32
2017-11-28T15:12:34.127Z,99367.14
2017-11-28T15:15:07.025Z,99369.27
2017-11-28T15:17:39.883Z,99370.27
2017-11-28T15:20:08.205Z,99367.34
2017-11-28T15:22:39.423Z,99373.56
2017-11-28T15:28:09.654Z,99372.37
2017-11-28T15:30:37.040Z,99372.80
2017-11-28T15:33:04.432Z,99367.39
2017-11-28T15:35:31.812Z,99368.55
2017-11-28T15:37:59.201Z,99364.09
2017-11-28T15:40:26.589Z,99366.75
2017-11-28T15:42:53.980Z,99365.70
2017-11-28T15:45:21.383Z,99359.16
2017-11-28T15:47:48.783Z,99358.47
2017-11-28T15:50:16.169Z,99359.61
2017-11-28T15:52:43.580Z,99357.78
2017-11-28T15:55:10.971Z,99353.41
2017-11-28T15:57:38.375Z,99351.95
2017-11-28T16:00:05.769Z,99354.73
2017-11-28T16:02:33.165Z,99354.92
2017-11-28T16:05:00.575Z,99355.56
2017-11-28T16:07:27.964Z,99354.45
2017-11-28T16:09:55.368Z,99352.53
2017-11-28T16:12:22.774Z,99360.50
2017-11-28T16:14:50.173Z,99353.16
2017-11-28T16:17:17.571Z,99350.70
2017-11-28T16:19:44.965Z,99350.51
2017-11-28T16:22:12.368Z,99348.89
2017-11-28T16:24:39.757Z,99350.64
2017-11-28T16:27:07.179Z,99342.77
2017-11-28T16:29:34.624Z,99344.52
2017-11-28T16:32:02.009Z,99337.27
2017-11-28T16:34:29.408Z,99342.70
2017-11-28T16:36:56.815Z,99334.25
2017-11-28T16:39:24.208Z,99343.45
2017-11-28T16:41:51.604Z,99345.01
2017-11-28T16:44:19.004Z,99339.42
2017-11-28T16:46:46.405Z,99338.92
2017-11-28T16:49:13.784Z,99345.14
2017-11-28T16:51:41.168Z,99346.97
2017-11-28T16:54:08.553Z,99341.38
2017-11-28T16:56:35.944Z,99340.50
2017-11-28T16:59:03.332Z,99343.59
2017-11-28T17:01:30.724Z,99345.16
2017-11-28T17:03:58.102Z,99342.83
2017-11-28T17:06:25.517Z,99342.43
2017-11-28T17:08:52.892Z,99338.06
2017-11-28T17:11:20.303Z,99344.00
2017-11-28T17:13:47.687Z,99338.61
2017-11-28T17:16:15.073Z,99335.77
2017-11-28T17:18:42.473Z,99337.70
2017-11-28T17:21:09.860Z,99335.16
2017-11-28T17:23:37.265Z,99335.05
2017-11-28T17:26:04.657Z,99331.91
2017-11-28T17:28:32.417Z,99330.66
2017-11-28T17:31:03.779Z,99329.56
2017-11-28T17:33:31.175Z,99326.31
2017-11-28T17:35:58.583Z,99332.00
2017-11-28T17:38:25.980Z,99328.83
2017-11-28T17:40:53.375Z,99329.65
2017-11-28T17:43:20.783Z,99333.80
2017-11-28T17:45:48.170Z,99333.70
2017-11-28T17:48:15.577Z,99337.02
2017-11-28T17:50:42.979Z,99337.24
2017-11-28T17:53:10.366Z,99338.56
2017-11-28T17:55:41.619Z,99333.89
2017-11-28T17:58:09.790Z,99332.38
2017-11-28T18:00:37.192Z,99330.20
2017-11-28T18:03:04.563Z,99331.04
2017-11-28T18:05:31.961Z,99333.57
2017-11-28T18:07:59.355Z,99332.86
2017-11-28T18:10:26.755Z,99336.64
2017-11-28T18:12:54.159Z,99331.66
2017-11-28T18:15:21.543Z,99336.02
2017-11-28T18:17:49.204Z,99335.33
2017-11-28T18:20:16.900Z,99333.80
2017-11-28T18:22:44.296Z,99336.25
2017-11-28T18:25:11.697Z,99336.45
2017-11-28T18:27:39.084Z,99335.75
2017-11-28T18:30:06.480Z,99335.95
2017-11-28T18:32:33.872Z,99333.72
2017-11-28T18:35:01.269Z,99330.06
2017-11-28T18:37:28.670Z,99329.95
2017-11-28T18:39:56.047Z,99334.33
2017-11-28T18:42:23.444Z,99338.91
2017-11-28T18:44:50.847Z,99335.55
2017-11-28T18:47:18.232Z,99338.61
2017-11-28T18:49:45.639Z,99332.71
2017-11-28T18:52:13.031Z,99332.90
2017-11-28T18:54:40.416Z,99329.27
2017-11-28T18:57:07.816Z,99329.56
2017-11-28T18:59:35.207Z,99329.05
2017-11-28T19:02:02.615Z,99327.64
2017-11-28T19:04:30.008Z,99328.25
2017-11-28T19:06:57.411Z,99335.95
2017-11-28T19:09:24.804Z,99338.52
2017-11-28T19:11:52.203Z,99328.54
2017-11-28T19:14:19.586Z,99331.37
2017-11-28T19:16:55.371Z,99330.34
2017-11-28T19:19:22.767Z,99331.05
2017-11-28T19:21:50.156Z,99335.00
2017-11-28T19:24:17.544Z,99327.17
2017-11-28T19:26:45.088Z,99323.40
2017-11-28T19:29:12.475Z,99327.31
2017-11-28T19:31:39.878Z,99328.39
2017-11-28T19:34:08.314Z,99328.02
2017-11-28T19:36:35.776Z,99328.20
2017-11-28T19:39:03.208Z,99330.23
2017-11-28T19:41:30.590Z,99326.59
2017-11-28T19:43:57.992Z,99330.34
2017-11-28T19:46:25.396Z,99332.44
2017-11-28T19:48:52.783Z,99336.59
2017-11-28T19:51:20.182Z,99326.41
2017-11-28T19:53:47.569Z,99331.75
2017-11-28T19:56:15.945Z,99331.75
2017-11-28T19:58:43.355Z,99328.48
2017-11-28T20:01:10.760Z,99330.00
2017-11-28T20:03:38.148Z,99326.34
2017-11-28T20:06:05.554Z,99325.92
2017-11-28T20:08:32.961Z,99326.23
2017-11-28T20:11:00.376Z,99322.70
2017-11-28T20:13:27.822Z,99326.88
2017-11-28T20:15:58.576Z,99328.20
2017-11-28T20:18:26.015Z,99323.83
2017-11-28T20:20:53.419Z,99329.66
2017-11-28T20:23:20.812Z,99327.42
2017-11-28T20:25:48.210Z,99331.22
2017-11-28T20:28:15.626Z,99326.67
2017-11-28T20:30:43.025Z,99323.02
2017-11-28T20:33:10.461Z,99322.61
2017-11-28T20:35:37.841Z,99328.81
2017-11-28T20:38:05.236Z,99334.41
2017-11-28T20:40:32.640Z,99326.71
2017-11-28T20:43:00.051Z,99327.51
2017-11-28T20:45:27.467Z,99328.56
2017-11-28T20:47:54.874Z,99326.66
2017-11-28T20:50:22.251Z,99327.56
2017-11-28T20:52:49.640Z,99327.08
2017-11-28T20:55:17.032Z,99329.00
2017-11-28T20:57:44.444Z,99323.80
2017-11-28T21:00:11.842Z,99323.72
2017-11-28T21:02:39.231Z,99318.62
2017-11-28T21:05:06.637Z,99318.13
2017-11-28T21:07:34.021Z,99312.73
2017-11-28T21:10:01.435Z,99313.73
2017-11-28T21:12:28.819Z,99318.61
2017-11-28T21:14:56.220Z,99314.56
2017-11-28T21:17:23.623Z,99312.66
2017-11-28T21:19:51.024Z,99314.70
2017-11-28T21:22:18.435Z,99307.06
2017-11-28T21:24:45.845Z,99310.61
2017-11-28T21:27:13.224Z,99308.89
2017-11-28T21:29:40.637Z,99311.42
2017-11-28T21:32:08.034Z,99313.47
2017-11-28T21:34:35.435Z,99308.69
2017-11-28T21:37:02.823Z,99316.73
2017-11-28T21:39:30.274Z,99312.25
2017-11-28T21:41:57.664Z,99308.82
2017-11-28T21:44:25.063Z,99316.18
2017-11-28T21:46:52.480Z,99316.18
2017-11-28T21:49:19.871Z,99313.44
2017-11-28T21:51:47.290Z,99314.87
2017-11-28T21:54:14.683Z,99312.61
2017-11-28T21:56:42.084Z,99308.27
2017-11-28T21:59:09.508Z,99309.88
2017-11-28T22:01:36.896Z,99307.84
2017-11-28T22:04:04.293Z,99306.42
2017-11-28T22:06:31.696Z,99310.38
2017-11-28T22:08:59.088Z,99315.05
2017-11-28T22:11:26.508Z,99307.63
2017-11-28T22:13:53.893Z,99307.32
2017-11-28T22:16:21.331Z,99301.84
2017-11-28T22:18:48.726Z,99304.98
2017-11-28T22:21:16.112Z,99305.81
2017-11-28T22:23:43.511Z,99301.14
2017-11-28T22:26:10.904Z,99303.67
2017-11-28T22:28:38.316Z,99307.45
2017-11-28T22:31:05.720Z,99303.48
2017-11-28T22:33:33.136Z,99305.22
2017-11-28T22:36:00.540Z,99314.87
2017-11-28T22:38:27.944Z,99313.02
2017-11-28T22:40:55.354Z,99313.14
2017-11-28T22:43:22.751Z,99315.27
2017-11-28T22:45:50.184Z,99311.90
2017-11-28T22:48:17.588Z,99314.47
2017-11-28T22:50:44.973Z,99316.39
2017-11-28T22:53:12.372Z,99314.95
2017-11-28T22:55:39.768Z,99308.88
2017-11-28T22:58:07.212Z,99307.45
2017-11-28T23:00:34.610Z,99305.72
2017-11-28T23:03:02.012Z,99299.94
2017-11-28T23:05:29.411Z,99305.63
2017-11-28T23:07:56.833Z,99307.14
2017-11-28T23:10:24.211Z,99305.63
2017-11-28T23:12:51.620Z,99303.78
2017-11-28T23:15:19.022Z,99299.40
2017-11-28T23:17:46.428Z,99304.00
2017-11-28T23:20:13.855Z,99302.66
2017-11-28T23:22:41.255Z,99303.89
2017-11-28T23:25:08.656Z,99302.46
2017-11-28T23:27:36.059Z,99298.01
2017-11-28T23:30:03.460Z,99297.50
2017-11-28T23:32:30.868Z,99301.15
2017-11-28T23:34:58.268Z,99295.27
2017-11-28T23:37:25.693Z,99297.90
2017-11-28T23:39:53.089Z,99292.09
2017-11-28T23:42:20.472Z,99297.19
2017-11-28T23:44:47.875Z,99296.47
2017-11-28T23:47:15.299Z,99298.09
2017-11-28T23:49:42.719Z,99299.42
2017-11-28T23:52:10.130Z,99293.84
2017-11-28T23:54:37.521Z,99294.14
2017-11-28T23:57:04.906Z,99296.59
2017-11-28T23:59:32.293Z,99295.69
